sensor_id;sensor_type;location;lat;lon;timestamp;P1;durP1;ratioP1;P2;durP2;ratioP2
14102;SDS011;7129;48.832;12.472;2022-11-15T00:05:25;9.88;;;8.48;;
14102;SDS011;7129;48.832;12.472;2022-11-15T00:10:27;9.70;;;8.38;;
14102;SDS011;7129;48.832;12.472;2022-11-15T00:15:29;9.77;;;8.13;;
14102;SDS011;7129;48.832;12.472;2022-11-15T00:20:33;10.77;;;8.82;;
14102;SDS011;7129;48.832;12.472;2022-11-15T00:25:35;8.05;;;6.25;;
14102;SDS011;7129;48.832;12.472;2022-11-15T00:30:38;13.38;;;7.95;;
14102;SDS011;7129;48.832;12.472;2022-11-15T00:35:42;10.90;;;8.65;;
14102;SDS011;7129;48.832;12.472;2022-11-15T00:40:44;9.50;;;8.45;;
14102;SDS011;7129;48.832;12.472;2022-11-15T00:45:46;10.77;;;8.70;;
14102;SDS011;7129;48.832;12.472;2022-11-15T00:50:50;8.90;;;7.88;;
14102;SDS011;7129;48.832;12.472;2022-11-15T00:55:51;9.93;;;8.38;;
14102;SDS011;7129;48.832;12.472;2022-11-15T01:00:53;11.15;;;9.63;;
14102;SDS011;7129;48.832;12.472;2022-11-15T01:05:59;10.93;;;9.13;;
14102;SDS011;7129;48.832;12.472;2022-11-15T01:11:04;10.93;;;9.30;;
14102;SDS011;7129;48.832;12.472;2022-11-15T01:16:09;11.15;;;8.80;;
14102;SDS011;7129;48.832;12.472;2022-11-15T01:21:14;11.18;;;8.35;;
14102;SDS011;7129;48.832;12.472;2022-11-15T01:26:17;10.55;;;8.70;;
14102;SDS011;7129;48.832;12.472;2022-11-15T01:31:19;11.23;;;9.20;;
14102;SDS011;7129;48.832;12.472;2022-11-15T01:36:24;12.60;;;9.68;;
14102;SDS011;7129;48.832;12.472;2022-11-15T01:41:27;10.00;;;8.90;;
14102;SDS011;7129;48.832;12.472;2022-11-15T01:46:31;10.07;;;8.77;;
14102;SDS011;7129;48.832;12.472;2022-11-15T01:51:37;9.68;;;8.45;;
14102;SDS011;7129;48.832;12.472;2022-11-15T01:56:40;10.45;;;9.05;;
14102;SDS011;7129;48.832;12.472;2022-11-15T02:01:46;10.00;;;8.20;;
14102;SDS011;7129;48.832;12.472;2022-11-15T02:06:50;10.82;;;7.28;;
14102;SDS011;7129;48.832;12.472;2022-11-15T02:11:52;9.65;;;8.02;;
14102;SDS011;7129;48.832;12.472;2022-11-15T02:16:57;12.18;;;10.18;;
14102;SDS011;7129;48.832;12.472;2022-11-15T02:22:05;13.05;;;10.38;;
14102;SDS011;7129;48.832;12.472;2022-11-15T02:27:28;11.82;;;10.20;;
14102;SDS011;7129;48.832;12.472;2022-11-15T02:32:57;13.63;;;9.80;;
14102;SDS011;7129;48.832;12.472;2022-11-15T02:38:04;12.82;;;10.10;;
14102;SDS011;7129;48.832;12.472;2022-11-15T02:43:12;10.88;;;9.32;;
14102;SDS011;7129;48.832;12.472;2022-11-15T02:48:38;9.60;;;8.15;;
14102;SDS011;7129;48.832;12.472;2022-11-15T02:53:41;9.93;;;8.90;;
14102;SDS011;7129;48.832;12.472;2022-11-15T02:58:54;8.95;;;7.80;;
14102;SDS011;7129;48.832;12.472;2022-11-15T03:04:10;9.25;;;7.80;;
14102;SDS011;7129;48.832;12.472;2022-11-15T03:09:29;11.63;;;9.82;;
14102;SDS011;7129;48.832;12.472;2022-11-15T03:14:36;12.77;;;9.90;;
14102;SDS011;7129;48.832;12.472;2022-11-15T03:19:46;9.57;;;8.30;;
14102;SDS011;7129;48.832;12.472;2022-11-15T03:25:38;12.43;;;10.07;;
14102;SDS011;7129;48.832;12.472;2022-11-15T03:30:44;13.02;;;9.02;;
14102;SDS011;7129;48.832;12.472;2022-11-15T03:36:04;11.70;;;9.65;;
14102;SDS011;7129;48.832;12.472;2022-11-15T03:41:08;11.95;;;9.55;;
14102;SDS011;7129;48.832;12.472;2022-11-15T03:46:17;14.00;;;10.13;;
14102;SDS011;7129;48.832;12.472;2022-11-15T03:51:26;10.05;;;8.77;;
14102;SDS011;7129;48.832;12.472;2022-11-15T03:56:29;10.10;;;7.80;;
14102;SDS011;7129;48.832;12.472;2022-11-15T04:01:31;10.77;;;9.10;;
14102;SDS011;7129;48.832;12.472;2022-11-15T04:06:35;12.55;;;8.98;;
14102;SDS011;7129;48.832;12.472;2022-11-15T04:11:36;12.73;;;9.48;;
14102;SDS011;7129;48.832;12.472;2022-11-15T04:16:38;15.93;;;9.57;;
14102;SDS011;7129;48.832;12.472;2022-11-15T04:21:41;8.80;;;7.90;;
14102;SDS011;7129;48.832;12.472;2022-11-15T04:27:01;9.93;;;8.52;;
14102;SDS011;7129;48.832;12.472;2022-11-15T04:32:03;11.83;;;9.60;;
14102;SDS011;7129;48.832;12.472;2022-11-15T04:37:07;13.13;;;10.33;;
14102;SDS011;7129;48.832;12.472;2022-11-15T04:42:16;17.10;;;8.47;;
14102;SDS011;7129;48.832;12.472;2022-11-15T04:47:18;8.18;;;7.38;;
14102;SDS011;7129;48.832;12.472;2022-11-15T04:58:00;9.17;;;7.77;;
14102;SDS011;7129;48.832;12.472;2022-11-15T05:03:03;29.37;;;7.83;;
14102;SDS011;7129;48.832;12.472;2022-11-15T05:08:22;92.60;;;11.23;;
14102;SDS011;7129;48.832;12.472;2022-11-15T05:13:26;34.33;;;8.90;;
14102;SDS011;7129;48.832;12.472;2022-11-15T05:18:28;7.13;;;6.45;;
14102;SDS011;7129;48.832;12.472;2022-11-15T05:23:30;7.17;;;6.43;;
14102;SDS011;7129;48.832;12.472;2022-11-15T05:28:33;6.90;;;6.30;;
14102;SDS011;7129;48.832;12.472;2022-11-15T05:33:36;7.83;;;7.07;;
14102;SDS011;7129;48.832;12.472;2022-11-15T05:38:39;9.60;;;5.83;;
14102;SDS011;7129;48.832;12.472;2022-11-15T05:43:42;6.83;;;6.10;;
14102;SDS011;7129;48.832;12.472;2022-11-15T05:48:45;6.40;;;5.80;;
14102;SDS011;7129;48.832;12.472;2022-11-15T05:53:50;7.17;;;6.47;;
14102;SDS011;7129;48.832;12.472;2022-11-15T05:58:56;7.27;;;6.53;;
14102;SDS011;7129;48.832;12.472;2022-11-15T06:03:58;7.30;;;6.60;;
14102;SDS011;7129;48.832;12.472;2022-11-15T06:09:00;8.00;;;6.47;;
14102;SDS011;7129;48.832;12.472;2022-11-15T06:14:04;8.63;;;7.73;;
14102;SDS011;7129;48.832;12.472;2022-11-15T06:19:06;7.83;;;7.03;;
14102;SDS011;7129;48.832;12.472;2022-11-15T06:24:08;8.40;;;7.17;;
14102;SDS011;7129;48.832;12.472;2022-11-15T06:29:12;7.93;;;6.23;;
14102;SDS011;7129;48.832;12.472;2022-11-15T06:34:14;7.20;;;6.50;;
14102;SDS011;7129;48.832;12.472;2022-11-15T06:39:16;6.77;;;6.07;;
14102;SDS011;7129;48.832;12.472;2022-11-15T06:44:19;7.20;;;6.50;;
14102;SDS011;7129;48.832;12.472;2022-11-15T06:49:21;8.52;;;6.88;;
14102;SDS011;7129;48.832;12.472;2022-11-15T06:54:23;7.82;;;7.03;;
14102;SDS011;7129;48.832;12.472;2022-11-15T06:59:26;10.05;;;8.85;;
14102;SDS011;7129;48.832;12.472;2022-11-15T07:04:28;8.88;;;7.88;;
14102;SDS011;7129;48.832;12.472;2022-11-15T07:09:30;8.85;;;7.70;;
14102;SDS011;7129;48.832;12.472;2022-11-15T07:14:34;8.27;;;7.28;;
14102;SDS011;7129;48.832;12.472;2022-11-15T07:19:37;7.40;;;6.32;;
14102;SDS011;7129;48.832;12.472;2022-11-15T07:24:39;10.65;;;7.97;;
14102;SDS011;7129;48.832;12.472;2022-11-15T07:29:42;13.23;;;10.45;;
14102;SDS011;7129;48.832;12.472;2022-11-15T07:34:44;10.30;;;8.93;;
14102;SDS011;7129;48.832;12.472;2022-11-15T07:39:46;10.15;;;9.13;;
14102;SDS011;7129;48.832;12.472;2022-11-15T07:44:49;12.48;;;9.43;;
14102;SDS011;7129;48.832;12.472;2022-11-15T07:49:51;13.07;;;9.20;;
14102;SDS011;7129;48.832;12.472;2022-11-15T07:54:53;9.75;;;8.75;;
14102;SDS011;7129;48.832;12.472;2022-11-15T07:59:56;11.00;;;9.50;;
14102;SDS011;7129;48.832;12.472;2022-11-15T08:04:58;9.63;;;8.73;;
14102;SDS011;7129;48.832;12.472;2022-11-15T08:10:00;9.30;;;8.40;;
14102;SDS011;7129;48.832;12.472;2022-11-15T08:15:11;11.50;;;10.30;;
14102;SDS011;7129;48.832;12.472;2022-11-15T08:20:31;13.48;;;10.25;;
14102;SDS011;7129;48.832;12.472;2022-11-15T08:25:34;12.02;;;10.80;;
14102;SDS011;7129;48.832;12.472;2022-11-15T08:30:40;12.98;;;9.93;;
14102;SDS011;7129;48.832;12.472;2022-11-15T08:35:45;11.00;;;9.88;;
14102;SDS011;7129;48.832;12.472;2022-11-15T08:40:48;11.57;;;10.48;;
14102;SDS011;7129;48.832;12.472;2022-11-15T08:45:52;10.40;;;8.95;;
14102;SDS011;7129;48.832;12.472;2022-11-15T08:50:57;10.13;;;9.23;;
14102;SDS011;7129;48.832;12.472;2022-11-15T08:55:58;11.85;;;10.48;;
14102;SDS011;7129;48.832;12.472;2022-11-15T09:01:02;10.73;;;9.70;;
14102;SDS011;7129;48.832;12.472;2022-11-15T09:06:05;10.70;;;9.63;;
14102;SDS011;7129;48.832;12.472;2022-11-15T09:11:08;12.55;;;10.07;;
14102;SDS011;7129;48.832;12.472;2022-11-15T09:16:12;11.60;;;10.50;;
14102;SDS011;7129;48.832;12.472;2022-11-15T09:21:15;12.10;;;10.80;;
14102;SDS011;7129;48.832;12.472;2022-11-15T09:26:17;13.00;;;11.57;;
14102;SDS011;7129;48.832;12.472;2022-11-15T09:31:21;12.38;;;11.07;;
14102;SDS011;7129;48.832;12.472;2022-11-15T09:36:23;12.57;;;11.27;;
14102;SDS011;7129;48.832;12.472;2022-11-15T09:41:34;13.15;;;10.93;;
14102;SDS011;7129;48.832;12.472;2022-11-15T09:46:47;17.30;;;12.05;;
14102;SDS011;7129;48.832;12.472;2022-11-15T09:51:56;12.75;;;11.43;;
14102;SDS011;7129;48.832;12.472;2022-11-15T09:57:02;15.52;;;12.50;;
14102;SDS011;7129;48.832;12.472;2022-11-15T10:02:12;15.13;;;12.77;;
14102;SDS011;7129;48.832;12.472;2022-11-15T10:07:23;13.55;;;12.15;;
14102;SDS011;7129;48.832;12.472;2022-11-15T10:12:28;15.05;;;13.13;;
14102;SDS011;7129;48.832;12.472;2022-11-15T10:17:40;15.40;;;12.88;;
14102;SDS011;7129;48.832;12.472;2022-11-15T10:23:18;16.08;;;13.95;;
14102;SDS011;7129;48.832;12.472;2022-11-15T10:29:17;17.73;;;14.98;;
14102;SDS011;7129;48.832;12.472;2022-11-15T10:34:23;15.38;;;13.70;;
14102;SDS011;7129;48.832;12.472;2022-11-15T10:45:37;17.17;;;14.40;;
14102;SDS011;7129;48.832;12.472;2022-11-15T10:50:41;15.55;;;13.98;;
14102;SDS011;7129;48.832;12.472;2022-11-15T11:01:47;15.57;;;13.45;;
14102;SDS011;7129;48.832;12.472;2022-11-15T11:06:51;14.68;;;13.13;;
14102;SDS011;7129;48.832;12.472;2022-11-15T11:12:03;15.40;;;13.80;;
14102;SDS011;7129;48.832;12.472;2022-11-15T11:17:09;15.63;;;14.02;;
14102;SDS011;7129;48.832;12.472;2022-11-15T11:22:22;15.98;;;14.13;;
14102;SDS011;7129;48.832;12.472;2022-11-15T11:27:31;15.20;;;13.60;;
14102;SDS011;7129;48.832;12.472;2022-11-15T11:32:40;15.20;;;13.50;;
14102;SDS011;7129;48.832;12.472;2022-11-15T11:38:15;13.20;;;11.85;;
14102;SDS011;7129;48.832;12.472;2022-11-15T11:43:30;14.32;;;12.82;;
14102;SDS011;7129;48.832;12.472;2022-11-15T11:48:43;14.35;;;12.65;;
14102;SDS011;7129;48.832;12.472;2022-11-15T11:53:50;13.13;;;11.93;;
14102;SDS011;7129;48.832;12.472;2022-11-15T11:58:56;14.40;;;12.90;;
14102;SDS011;7129;48.832;12.472;2022-11-15T12:04:04;15.02;;;12.93;;
14102;SDS011;7129;48.832;12.472;2022-11-15T12:09:20;13.77;;;12.32;;
14102;SDS011;7129;48.832;12.472;2022-11-15T12:14:34;14.20;;;12.73;;
14102;SDS011;7129;48.832;12.472;2022-11-15T12:19:40;14.30;;;12.90;;
14102;SDS011;7129;48.832;12.472;2022-11-15T12:24:45;13.18;;;11.77;;
14102;SDS011;7129;48.832;12.472;2022-11-15T12:29:51;14.30;;;12.82;;
14102;SDS011;7129;48.832;12.472;2022-11-15T12:34:57;13.85;;;12.15;;
14102;SDS011;7129;48.832;12.472;2022-11-15T12:40:17;13.15;;;11.85;;
14102;SDS011;7129;48.832;12.472;2022-11-15T12:45:24;15.15;;;12.35;;
14102;SDS011;7129;48.832;12.472;2022-11-15T13:06:59;16.23;;;12.65;;
14102;SDS011;7129;48.832;12.472;2022-11-15T13:12:06;14.70;;;12.68;;
14102;SDS011;7129;48.832;12.472;2022-11-15T13:17:23;14.45;;;12.95;;
14102;SDS011;7129;48.832;12.472;2022-11-15T13:22:38;13.75;;;12.35;;
14102;SDS011;7129;48.832;12.472;2022-11-15T13:27:55;14.55;;;12.52;;
14102;SDS011;7129;48.832;12.472;2022-11-15T13:33:00;16.10;;;13.63;;
14102;SDS011;7129;48.832;12.472;2022-11-15T13:38:11;13.43;;;12.02;;
14102;SDS011;7129;48.832;12.472;2022-11-15T13:43:25;15.00;;;12.98;;
14102;SDS011;7129;48.832;12.472;2022-11-15T13:48:29;14.68;;;12.63;;
14102;SDS011;7129;48.832;12.472;2022-11-15T13:53:34;15.55;;;13.55;;
14102;SDS011;7129;48.832;12.472;2022-11-15T13:58:41;11.95;;;10.77;;
14102;SDS011;7129;48.832;12.472;2022-11-15T14:03:46;14.77;;;13.27;;
14102;SDS011;7129;48.832;12.472;2022-11-15T14:08:57;15.65;;;14.05;;
14102;SDS011;7129;48.832;12.472;2022-11-15T14:14:28;15.85;;;14.27;;
14102;SDS011;7129;48.832;12.472;2022-11-15T14:19:35;16.17;;;14.48;;
14102;SDS011;7129;48.832;12.472;2022-11-15T14:24:38;15.15;;;13.55;;
14102;SDS011;7129;48.832;12.472;2022-11-15T14:29:43;16.17;;;14.27;;
14102;SDS011;7129;48.832;12.472;2022-11-15T14:34:45;18.00;;;14.70;;
14102;SDS011;7129;48.832;12.472;2022-11-15T14:39:47;15.95;;;14.05;;
14102;SDS011;7129;48.832;12.472;2022-11-15T14:44:58;16.55;;;14.05;;
14102;SDS011;7129;48.832;12.472;2022-11-15T14:50:00;20.23;;;15.20;;
14102;SDS011;7129;48.832;12.472;2022-11-15T14:55:02;18.45;;;14.68;;
14102;SDS011;7129;48.832;12.472;2022-11-15T15:00:32;16.77;;;14.73;;
14102;SDS011;7129;48.832;12.472;2022-11-15T15:05:36;16.08;;;14.38;;
14102;SDS011;7129;48.832;12.472;2022-11-15T15:10:39;14.52;;;12.95;;
14102;SDS011;7129;48.832;12.472;2022-11-15T15:15:44;13.55;;;12.15;;
14102;SDS011;7129;48.832;12.472;2022-11-15T15:20:48;13.63;;;12.13;;
14102;SDS011;7129;48.832;12.472;2022-11-15T15:25:55;14.48;;;12.50;;
14102;SDS011;7129;48.832;12.472;2022-11-15T15:31:00;14.63;;;13.10;;
14102;SDS011;7129;48.832;12.472;2022-11-15T15:36:02;20.58;;;15.45;;
14102;SDS011;7129;48.832;12.472;2022-11-15T15:41:06;17.35;;;14.23;;
14102;SDS011;7129;48.832;12.472;2022-11-15T15:46:13;17.05;;;13.45;;
14102;SDS011;7129;48.832;12.472;2022-11-15T15:51:16;14.85;;;11.40;;
14102;SDS011;7129;48.832;12.472;2022-11-15T15:56:18;15.98;;;12.00;;
14102;SDS011;7129;48.832;12.472;2022-11-15T16:01:23;15.73;;;14.15;;
14102;SDS011;7129;48.832;12.472;2022-11-15T16:06:35;14.45;;;12.85;;
14102;SDS011;7129;48.832;12.472;2022-11-15T16:11:39;14.38;;;11.32;;
14102;SDS011;7129;48.832;12.472;2022-11-15T16:16:42;10.23;;;9.05;;
14102;SDS011;7129;48.832;12.472;2022-11-15T16:21:44;9.73;;;8.73;;
14102;SDS011;7129;48.832;12.472;2022-11-15T16:26:46;9.82;;;8.82;;
14102;SDS011;7129;48.832;12.472;2022-11-15T16:31:51;10.73;;;8.95;;
14102;SDS011;7129;48.832;12.472;2022-11-15T16:36:52;12.27;;;10.85;;
14102;SDS011;7129;48.832;12.472;2022-11-15T16:41:56;9.55;;;8.55;;
14102;SDS011;7129;48.832;12.472;2022-11-15T16:47:01;12.18;;;10.88;;
14102;SDS011;7129;48.832;12.472;2022-11-15T16:52:03;13.63;;;11.30;;
14102;SDS011;7129;48.832;12.472;2022-11-15T16:57:11;11.20;;;9.98;;
14102;SDS011;7129;48.832;12.472;2022-11-15T17:02:15;14.02;;;9.93;;
14102;SDS011;7129;48.832;12.472;2022-11-15T17:07:17;10.70;;;9.60;;
14102;SDS011;7129;48.832;12.472;2022-11-15T17:12:19;14.00;;;10.77;;
14102;SDS011;7129;48.832;12.472;2022-11-15T17:17:23;13.05;;;10.93;;
14102;SDS011;7129;48.832;12.472;2022-11-15T17:22:25;9.73;;;8.55;;
14102;SDS011;7129;48.832;12.472;2022-11-15T17:27:27;13.55;;;10.70;;
14102;SDS011;7129;48.832;12.472;2022-11-15T17:32:36;16.98;;;12.77;;
14102;SDS011;7129;48.832;12.472;2022-11-15T17:37:38;14.65;;;12.52;;
14102;SDS011;7129;48.832;12.472;2022-11-15T17:42:40;13.65;;;11.57;;
14102;SDS011;7129;48.832;12.472;2022-11-15T17:47:46;16.08;;;13.82;;
14102;SDS011;7129;48.832;12.472;2022-11-15T17:52:55;16.38;;;12.32;;
14102;SDS011;7129;48.832;12.472;2022-11-15T17:57:59;16.08;;;13.50;;
14102;SDS011;7129;48.832;12.472;2022-11-15T18:03:02;16.05;;;13.20;;
14102;SDS011;7129;48.832;12.472;2022-11-15T18:08:05;13.23;;;11.57;;
14102;SDS011;7129;48.832;12.472;2022-11-15T18:13:07;17.33;;;13.20;;
14102;SDS011;7129;48.832;12.472;2022-11-15T18:18:10;15.23;;;12.90;;
14102;SDS011;7129;48.832;12.472;2022-11-15T18:23:13;15.75;;;14.02;;
14102;SDS011;7129;48.832;12.472;2022-11-15T18:28:17;14.93;;;12.40;;
14102;SDS011;7129;48.832;12.472;2022-11-15T18:33:20;13.63;;;11.10;;
14102;SDS011;7129;48.832;12.472;2022-11-15T18:38:22;17.45;;;11.80;;
14102;SDS011;7129;48.832;12.472;2022-11-15T18:43:29;14.40;;;11.02;;
14102;SDS011;7129;48.832;12.472;2022-11-15T18:48:33;17.70;;;14.30;;
14102;SDS011;7129;48.832;12.472;2022-11-15T18:53:38;23.45;;;17.25;;
14102;SDS011;7129;48.832;12.472;2022-11-15T18:58:42;18.38;;;14.00;;
14102;SDS011;7129;48.832;12.472;2022-11-15T19:03:47;18.85;;;14.93;;
14102;SDS011;7129;48.832;12.472;2022-11-15T19:08:51;19.17;;;13.60;;
14102;SDS011;7129;48.832;12.472;2022-11-15T19:13:56;20.70;;;14.90;;
14102;SDS011;7129;48.832;12.472;2022-11-15T19:19:02;17.40;;;14.23;;
14102;SDS011;7129;48.832;12.472;2022-11-15T19:24:05;15.00;;;13.18;;
14102;SDS011;7129;48.832;12.472;2022-11-15T19:29:08;13.68;;;11.95;;
14102;SDS011;7129;48.832;12.472;2022-11-15T19:34:11;15.25;;;12.48;;
14102;SDS011;7129;48.832;12.472;2022-11-15T19:39:13;15.63;;;12.27;;
14102;SDS011;7129;48.832;12.472;2022-11-15T19:44:17;15.18;;;12.27;;
14102;SDS011;7129;48.832;12.472;2022-11-15T19:49:20;16.77;;;13.10;;
14102;SDS011;7129;48.832;12.472;2022-11-15T19:54:22;20.85;;;14.25;;
14102;SDS011;7129;48.832;12.472;2022-11-15T19:59:24;18.30;;;14.63;;
14102;SDS011;7129;48.832;12.472;2022-11-15T20:04:27;19.58;;;14.35;;
14102;SDS011;7129;48.832;12.472;2022-11-15T20:09:29;22.17;;;15.52;;
14102;SDS011;7129;48.832;12.472;2022-11-15T20:14:31;17.85;;;14.23;;
14102;SDS011;7129;48.832;12.472;2022-11-15T20:19:35;159.52;;;88.55;;
14102;SDS011;7129;48.832;12.472;2022-11-15T20:24:38;57.58;;;38.80;;
14102;SDS011;7129;48.832;12.472;2022-11-15T20:29:40;34.42;;;23.35;;
14102;SDS011;7129;48.832;12.472;2022-11-15T20:34:45;26.40;;;18.27;;
14102;SDS011;7129;48.832;12.472;2022-11-15T20:39:47;29.67;;;21.50;;
14102;SDS011;7129;48.832;12.472;2022-11-15T20:44:48;30.23;;;21.65;;
14102;SDS011;7129;48.832;12.472;2022-11-15T20:49:52;31.95;;;21.25;;
14102;SDS011;7129;48.832;12.472;2022-11-15T20:54:54;31.60;;;21.52;;
14102;SDS011;7129;48.832;12.472;2022-11-15T20:59:58;32.40;;;22.67;;
14102;SDS011;7129;48.832;12.472;2022-11-15T21:05:01;37.90;;;28.77;;
14102;SDS011;7129;48.832;12.472;2022-11-15T21:10:04;36.78;;;25.05;;
14102;SDS011;7129;48.832;12.472;2022-11-15T21:15:23;36.13;;;25.45;;
14102;SDS011;7129;48.832;12.472;2022-11-15T21:20:26;46.80;;;26.83;;
14102;SDS011;7129;48.832;12.472;2022-11-15T21:25:29;53.88;;;27.30;;
14102;SDS011;7129;48.832;12.472;2022-11-15T21:30:31;46.88;;;26.35;;
14102;SDS011;7129;48.832;12.472;2022-11-15T21:35:48;56.45;;;26.67;;
14102;SDS011;7129;48.832;12.472;2022-11-15T21:40:51;67.53;;;27.08;;
14102;SDS011;7129;48.832;12.472;2022-11-15T21:45:54;55.33;;;26.05;;
14102;SDS011;7129;48.832;12.472;2022-11-15T21:51:00;72.80;;;28.40;;
14102;SDS011;7129;48.832;12.472;2022-11-15T21:56:03;73.00;;;27.50;;
14102;SDS011;7129;48.832;12.472;2022-11-15T22:01:06;86.80;;;29.20;;
14102;SDS011;7129;48.832;12.472;2022-11-15T22:06:29;67.93;;;27.52;;
14102;SDS011;7129;48.832;12.472;2022-11-15T22:11:31;73.47;;;28.73;;
14102;SDS011;7129;48.832;12.472;2022-11-15T22:16:34;59.47;;;26.50;;
14102;SDS011;7129;48.832;12.472;2022-11-15T22:21:54;101.10;;;27.80;;
14102;SDS011;7129;48.832;12.472;2022-11-15T22:26:56;80.55;;;26.50;;
14102;SDS011;7129;48.832;12.472;2022-11-15T22:31:58;74.93;;;26.02;;
14102;SDS011;7129;48.832;12.472;2022-11-15T22:37:01;94.60;;;28.60;;
14102;SDS011;7129;48.832;12.472;2022-11-15T22:42:03;106.68;;;28.88;;
14102;SDS011;7129;48.832;12.472;2022-11-15T22:47:05;61.72;;;26.42;;
14102;SDS011;7129;48.832;12.472;2022-11-15T22:52:09;65.00;;;24.05;;
14102;SDS011;7129;48.832;12.472;2022-11-15T22:57:12;85.40;;;26.70;;
14102;SDS011;7129;48.832;12.472;2022-11-15T23:02:14;95.57;;;29.88;;
14102;SDS011;7129;48.832;12.472;2022-11-15T23:07:17;103.80;;;29.67;;
14102;SDS011;7129;48.832;12.472;2022-11-15T23:12:19;74.32;;;25.05;;
14102;SDS011;7129;48.832;12.472;2022-11-15T23:17:39;104.95;;;29.92;;
14102;SDS011;7129;48.832;12.472;2022-11-15T23:22:42;100.13;;;29.63;;
14102;SDS011;7129;48.832;12.472;2022-11-15T23:27:47;75.68;;;28.08;;
14102;SDS011;7129;48.832;12.472;2022-11-15T23:32:49;75.13;;;29.65;;
14102;SDS011;7129;48.832;12.472;2022-11-15T23:38:09;112.70;;;31.08;;
14102;SDS011;7129;48.832;12.472;2022-11-15T23:43:12;54.25;;;27.30;;
14102;SDS011;7129;48.832;12.472;2022-11-15T23:48:14;62.35;;;28.33;;
14102;SDS011;7129;48.832;12.472;2022-11-15T23:53:17;61.78;;;29.10;;
14102;SDS011;7129;48.832;12.472;2022-11-15T23:58:20;60.03;;;27.83;;
